Time;durP1;ratioP1;P1;durP2;ratioP2;P2;SDS_P1;SDS_P2;PMS_P1;PMS_P2;Temp;Humidity;BMP_temperature;BMP_pressure;BME280_temperature;BME280_humidity;BME280_pressure;Samples;Min_cycle;Max_cycle;Signal;HPM_P1;HPM_P2
2023/04/17 00:00:03;;;;;;;61.88;31.27;;;;;;;;;;5043343;28;20114;-70
2023/04/17 00:02:29;;;;;;;60.13;30.63;;;;;;;;;;5058510;28;20047;-70
2023/04/17 00:04:56;;;;;;;59.60;29.75;;;;;;;;;;5059091;28;20039;-70
2023/04/17 00:07:27;;;;;;;67.00;30.17;;;;;;;;;;5059586;28;20097;-71
2023/04/17 00:09:54;;;;;;;55.28;29.98;;;;;;;;;;5057979;28;20298;-69
2023/04/17 00:12:20;;;;;;;56.83;30.05;;;;;;;;;;5059304;28;20127;-70
2023/04/17 00:14:47;;;;;;;55.00;29.65;;;;;;;;;;5034765;28;20174;-70
2023/04/17 00:17:13;;;;;;;57.88;28.70;;;;;;;;;;5061525;28;20427;-70
2023/04/17 00:19:40;;;;;;;71.80;32.03;;;;;;;;;;5061567;28;20044;-69
2023/04/17 00:22:07;;;;;;;58.67;30.58;;;;;;;;;;5044488;28;20225;-69
2023/04/17 00:24:33;;;;;;;70.93;31.65;;;;;;;;;;5060382;28;20512;-70
2023/04/17 00:26:58;;;;;;;68.30;30.70;;;;;;;;;;5039597;28;20280;-71
2023/04/17 00:29:23;;;;;;;69.75;32.25;;;;;;;;;;5040149;28;20058;-70
2023/04/17 00:31:51;;;;;;;71.00;32.25;;;;;;;;;;5062379;28;20059;-71
2023/04/17 00:34:16;;;;;;;75.90;32.67;;;;;;;;;;5063519;28;20040;-70
2023/04/17 00:36:41;;;;;;;77.32;34.40;;;;;;;;;;5063432;28;20471;-70
2023/04/17 00:39:09;;;;;;;78.28;34.03;;;;;;;;;;5061208;28;20070;-70
2023/04/17 00:41:34;;;;;;;75.88;33.83;;;;;;;;;;5061770;28;20171;-70
2023/04/17 00:43:59;;;;;;;79.95;35.20;;;;;;;;;;5061238;28;20040;-70
2023/04/17 00:46:27;;;;;;;78.03;34.15;;;;;;;;;;5062145;28;20063;-70
2023/04/17 00:48:52;;;;;;;82.28;35.63;;;;;;;;;;5060737;28;20047;-70
2023/04/17 00:51:17;;;;;;;86.88;37.70;;;;;;;;;;5059443;28;20778;-69
2023/04/17 00:53:45;;;;;;;97.07;37.03;;;;;;;;;;5061549;28;20069;-70
2023/04/17 00:56:12;;;;;;;94.25;37.70;;;;;;;;;;5044300;28;20585;-69
2023/04/17 00:58:39;;;;;;;77.57;34.05;;;;;;;;;;5065459;28;20109;-69
2023/04/17 01:01:05;;;;;;;74.20;34.47;;;;;;;;;;5044861;28;20028;-70
2023/04/17 01:03:30;;;;;;;85.85;36.63;;;;;;;;;;5062378;28;20401;-70
2023/04/17 01:05:56;;;;;;;77.35;35.00;;;;;;;;;;5061429;28;20113;-70
2023/04/17 01:08:21;;;;;;;83.93;35.08;;;;;;;;;;5060332;28;20612;-70
2023/04/17 01:10:51;;;;;;;89.72;35.92;;;;;;;;;;5060292;28;20044;-70
2023/04/17 01:13:16;;;;;;;87.65;36.25;;;;;;;;;;5062583;28;20127;-70
2023/04/17 01:15:42;;;;;;;86.85;34.80;;;;;;;;;;5062994;28;20028;-70
2023/04/17 01:18:07;;;;;;;82.38;35.25;;;;;;;;;;5044098;28;20070;-70
2023/04/17 01:20:33;;;;;;;80.72;33.08;;;;;;;;;;5060127;28;20089;-69
2023/04/17 01:22:58;;;;;;;77.57;33.30;;;;;;;;;;5059857;28;20181;-70
2023/04/17 01:25:27;;;;;;;70.28;31.65;;;;;;;;;;5042671;28;20032;-69
2023/04/17 01:27:52;;;;;;;67.82;32.13;;;;;;;;;;5058777;28;20301;-69
2023/04/17 01:30:18;;;;;;;70.85;31.00;;;;;;;;;;5050997;28;20049;-69
2023/04/17 01:32:43;;;;;;;66.75;30.05;;;;;;;;;;5057878;28;20477;-70
2023/04/17 01:35:09;;;;;;;71.57;30.77;;;;;;;;;;5038509;28;20449;-69
2023/04/17 01:37:34;;;;;;;66.65;30.17;;;;;;;;;;5061437;28;20048;-70
2023/04/17 01:39:59;;;;;;;65.60;30.35;;;;;;;;;;5058700;28;20127;-70
2023/04/17 01:42:25;;;;;;;76.72;31.65;;;;;;;;;;5040537;28;20291;-69
2023/04/17 01:44:50;;;;;;;77.85;32.20;;;;;;;;;;5062041;28;20040;-69
2023/04/17 01:47:15;;;;;;;83.25;32.88;;;;;;;;;;5040407;28;20120;-70
2023/04/17 01:49:40;;;;;;;79.10;33.10;;;;;;;;;;5062790;28;20458;-71
2023/04/17 01:52:06;;;;;;;79.55;33.53;;;;;;;;;;5040111;28;20043;-69
2023/04/17 01:54:31;;;;;;;81.68;32.63;;;;;;;;;;5044610;28;20040;-69
2023/04/17 01:56:56;;;;;;;85.35;34.35;;;;;;;;;;5060788;28;20129;-70
2023/04/17 01:59:22;;;;;;;80.43;35.30;;;;;;;;;;5062230;28;20492;-70
2023/04/17 02:01:51;;;;;;;78.55;34.63;;;;;;;;;;5058750;28;20141;-70
2023/04/17 02:04:18;;;;;;;83.20;33.05;;;;;;;;;;5062593;28;20093;-70
2023/04/17 02:06:46;;;;;;;79.47;32.55;;;;;;;;;;5015251;28;20509;-69
2023/04/17 02:09:11;;;;;;;97.15;34.40;;;;;;;;;;5059744;28;20059;-70
2023/04/17 02:11:36;;;;;;;80.85;34.55;;;;;;;;;;5042784;28;20036;-69
2023/04/17 02:14:02;;;;;;;83.43;34.58;;;;;;;;;;5058525;28;20049;-69
2023/04/17 02:16:27;;;;;;;94.07;34.83;;;;;;;;;;5047931;28;20046;-71
2023/04/17 02:18:53;;;;;;;83.28;33.10;;;;;;;;;;5042758;28;20052;-69
2023/04/17 02:21:18;;;;;;;78.43;34.63;;;;;;;;;;5060778;28;20039;-69
2023/04/17 02:23:48;;;;;;;76.30;33.70;;;;;;;;;;5043993;28;20036;-69
2023/04/17 02:26:14;;;;;;;81.70;33.13;;;;;;;;;;5058889;28;20413;-70
2023/04/17 02:28:42;;;;;;;79.00;31.42;;;;;;;;;;5062690;28;20190;-69
2023/04/17 02:31:07;;;;;;;74.60;31.65;;;;;;;;;;5047282;28;20028;-69
2023/04/17 02:33:33;;;;;;;72.45;31.83;;;;;;;;;;5039033;28;20503;-70
2023/04/17 02:35:59;;;;;;;63.33;28.98;;;;;;;;;;5058162;28;20055;-70
2023/04/17 02:38:24;;;;;;;66.50;29.88;;;;;;;;;;5038994;28;20127;-69
2023/04/17 02:40:49;;;;;;;56.00;28.25;;;;;;;;;;5041938;28;20036;-69
2023/04/17 02:43:16;;;;;;;53.63;27.10;;;;;;;;;;5060598;28;20035;-72
2023/04/17 02:45:41;;;;;;;55.20;28.05;;;;;;;;;;5059167;28;20112;-70
2023/04/17 02:48:07;;;;;;;58.13;27.77;;;;;;;;;;5060290;28;20291;-70
2023/04/17 02:50:33;;;;;;;52.22;26.90;;;;;;;;;;5037155;28;20167;-70
2023/04/17 02:52:58;;;;;;;57.03;27.52;;;;;;;;;;5057834;28;20779;-70
2023/04/17 02:55:25;;;;;;;59.05;27.60;;;;;;;;;;5058579;28;20040;-69
2023/04/17 02:57:51;;;;;;;53.55;26.92;;;;;;;;;;5062827;28;20040;-70
2023/04/17 03:00:16;;;;;;;61.88;28.77;;;;;;;;;;5059966;28;20123;-70
2023/04/17 03:02:41;;;;;;;56.28;27.98;;;;;;;;;;5057743;28;20443;-69
2023/04/17 03:05:07;;;;;;;56.88;28.10;;;;;;;;;;5056611;28;20067;-70
2023/04/17 03:07:32;;;;;;;52.67;26.77;;;;;;;;;;5059284;28;20047;-69
2023/04/17 03:09:57;;;;;;;57.33;28.65;;;;;;;;;;5059161;28;20055;-70
2023/04/17 03:12:23;;;;;;;54.45;27.27;;;;;;;;;;5057818;28;20036;-70
2023/04/17 03:14:51;;;;;;;57.85;29.02;;;;;;;;;;5060545;28;20579;-70
2023/04/17 03:17:16;;;;;;;53.75;27.42;;;;;;;;;;5037014;28;20056;-70
2023/04/17 03:19:41;;;;;;;53.75;27.05;;;;;;;;;;5059430;28;20032;-70
2023/04/17 03:22:07;;;;;;;55.20;28.08;;;;;;;;;;5060247;28;20040;-71
2023/04/17 03:24:35;;;;;;;53.30;28.10;;;;;;;;;;5060978;28;20143;-70
2023/04/17 03:27:02;;;;;;;50.58;27.30;;;;;;;;;;5040499;28;20369;-70
2023/04/17 03:29:27;;;;;;;52.10;27.30;;;;;;;;;;5058546;28;20044;-70
2023/04/17 03:31:53;;;;;;;52.83;28.30;;;;;;;;;;5038382;28;20131;-72
2023/04/17 03:34:20;;;;;;;62.08;28.63;;;;;;;;;;5041912;28;20565;-69
2023/04/17 03:36:47;;;;;;;54.10;28.33;;;;;;;;;;5037240;28;21649;-69
2023/04/17 03:39:13;;;;;;;59.10;27.77;;;;;;;;;;5056916;28;20510;-70
2023/04/17 03:41:40;;;;;;;56.72;28.67;;;;;;;;;;5059205;28;20197;-70
2023/04/17 03:44:07;;;;;;;61.00;29.20;;;;;;;;;;5058783;28;20233;-72
2023/04/17 03:46:32;;;;;;;61.40;28.67;;;;;;;;;;5037483;28;20051;-69
2023/04/17 03:48:58;;;;;;;58.33;29.58;;;;;;;;;;5057884;28;20602;-69
2023/04/17 03:51:26;;;;;;;64.90;30.05;;;;;;;;;;5057683;28;20528;-69
2023/04/17 03:53:51;;;;;;;60.85;29.40;;;;;;;;;;5045076;28;20669;-69
2023/04/17 03:56:17;;;;;;;59.05;28.85;;;;;;;;;;5038831;28;20189;-69
2023/04/17 03:58:44;;;;;;;62.42;28.33;;;;;;;;;;5043585;28;20029;-69
2023/04/17 04:01:09;;;;;;;59.10;28.10;;;;;;;;;;5036703;28;20059;-69
2023/04/17 04:03:38;;;;;;;58.35;28.38;;;;;;;;;;5036084;28;20039;-70
2023/04/17 04:06:03;;;;;;;60.28;28.35;;;;;;;;;;5059016;28;20108;-69
2023/04/17 04:08:28;;;;;;;61.53;28.88;;;;;;;;;;5057717;28;20028;-69
2023/04/17 04:10:53;;;;;;;61.22;28.90;;;;;;;;;;5057924;28;20044;-69
2023/04/17 04:13:19;;;;;;;61.60;28.55;;;;;;;;;;5038555;28;20044;-69
2023/04/17 04:15:44;;;;;;;60.22;27.40;;;;;;;;;;5058369;28;20040;-68
2023/04/17 04:18:09;;;;;;;63.03;27.83;;;;;;;;;;5058970;28;20483;-69
2023/04/17 04:20:35;;;;;;;64.22;28.70;;;;;;;;;;5036776;28;22057;-70
2023/04/17 04:23:03;;;;;;;66.93;29.17;;;;;;;;;;5045246;28;20348;-70
2023/04/17 04:25:31;;;;;;;67.90;31.55;;;;;;;;;;5037422;28;20043;-70
2023/04/17 04:28:00;;;;;;;69.35;30.67;;;;;;;;;;5038641;28;20140;-69
2023/04/17 04:30:25;;;;;;;72.65;31.50;;;;;;;;;;5057847;28;22771;-70
2023/04/17 04:32:51;;;;;;;74.97;31.58;;;;;;;;;;5059498;28;20098;-69
2023/04/17 04:35:16;;;;;;;69.82;30.50;;;;;;;;;;5057320;28;20616;-69
2023/04/17 04:37:45;;;;;;;73.38;31.95;;;;;;;;;;5021544;28;20255;-69
2023/04/17 04:40:10;;;;;;;65.63;29.40;;;;;;;;;;5057489;28;20144;-71
2023/04/17 04:42:36;;;;;;;65.78;30.83;;;;;;;;;;5043205;28;20040;-70
2023/04/17 04:45:02;;;;;;;59.88;28.92;;;;;;;;;;5057255;28;20128;-70
2023/04/17 04:47:29;;;;;;;60.47;28.60;;;;;;;;;;5040272;28;20051;-69
2023/04/17 04:49:54;;;;;;;63.28;28.40;;;;;;;;;;5040592;28;20461;-70
2023/04/17 04:52:19;;;;;;;63.35;28.83;;;;;;;;;;5035621;28;20206;-69
2023/04/17 04:54:45;;;;;;;66.20;29.45;;;;;;;;;;5059614;28;20508;-70
2023/04/17 04:57:13;;;;;;;63.80;29.20;;;;;;;;;;5060894;28;20044;-70
2023/04/17 04:59:38;;;;;;;67.57;29.95;;;;;;;;;;5058490;28;20063;-70
2023/04/17 05:02:03;;;;;;;61.67;29.20;;;;;;;;;;5058887;28;20047;-70
2023/04/17 05:04:28;;;;;;;64.90;29.52;;;;;;;;;;5061406;28;20044;-68
2023/04/17 05:06:55;;;;;;;65.00;30.42;;;;;;;;;;5039345;28;20040;-69
2023/04/17 05:09:21;;;;;;;58.53;31.50;;;;;;;;;;5055068;28;20367;-69
2023/04/17 05:11:46;;;;;;;61.45;30.83;;;;;;;;;;5062496;28;20173;-69
2023/04/17 05:14:11;;;;;;;63.45;30.50;;;;;;;;;;5061879;28;20135;-70
2023/04/17 05:16:36;;;;;;;68.85;31.33;;;;;;;;;;5046473;28;20036;-69
2023/04/17 05:19:02;;;;;;;61.25;30.92;;;;;;;;;;5062143;28;20442;-70
2023/04/17 05:21:27;;;;;;;56.58;29.60;;;;;;;;;;5028087;28;20032;-71
2023/04/17 05:23:53;;;;;;;55.55;29.73;;;;;;;;;;5042466;28;20043;-71
2023/04/17 05:26:20;;;;;;;55.53;29.40;;;;;;;;;;5062116;28;20060;-70
2023/04/17 05:28:46;;;;;;;53.13;29.73;;;;;;;;;;5058566;28;20028;-70
2023/04/17 05:31:11;;;;;;;50.53;28.42;;;;;;;;;;5060143;28;20509;-70
2023/04/17 05:33:36;;;;;;;51.80;28.60;;;;;;;;;;5041509;28;20737;-70
2023/04/17 05:36:02;;;;;;;57.03;30.63;;;;;;;;;;5056319;28;20694;-70
2023/04/17 05:38:29;;;;;;;54.90;29.27;;;;;;;;;;5038600;28;20446;-70
2023/04/17 05:40:57;;;;;;;49.53;28.67;;;;;;;;;;5039979;28;20137;-70
2023/04/17 05:43:25;;;;;;;56.13;29.42;;;;;;;;;;5057656;28;20032;-71
2023/04/17 05:45:50;;;;;;;52.35;30.25;;;;;;;;;;5059453;28;20064;-70
2023/04/17 05:48:17;;;;;;;54.42;30.20;;;;;;;;;;5058652;28;20085;-71
2023/04/17 05:50:42;;;;;;;53.38;29.00;;;;;;;;;;5025010;28;20051;-72
2023/04/17 05:53:08;;;;;;;55.65;29.50;;;;;;;;;;5057049;28;20036;-72
2023/04/17 05:55:33;;;;;;;54.60;30.30;;;;;;;;;;5061066;28;20082;-72
2023/04/17 05:57:58;;;;;;;55.53;29.65;;;;;;;;;;5059435;28;20120;-71
2023/04/17 06:00:24;;;;;;;51.78;29.95;;;;;;;;;;5061077;28;20036;-73
2023/04/17 06:02:49;;;;;;;59.30;30.25;;;;;;;;;;5058839;28;20035;-71
2023/04/17 06:05:15;;;;;;;53.22;28.65;;;;;;;;;;5061560;28;20040;-73
2023/04/17 06:07:40;;;;;;;52.95;28.50;;;;;;;;;;5063427;28;20041;-72
2023/04/17 06:10:09;;;;;;;50.83;28.83;;;;;;;;;;5060586;28;20051;-71
2023/04/17 06:12:35;;;;;;;50.95;28.38;;;;;;;;;;5060109;28;20087;-72
2023/04/17 06:15:00;;;;;;;53.72;28.77;;;;;;;;;;5061007;28;20119;-72
2023/04/17 06:17:25;;;;;;;50.50;28.60;;;;;;;;;;5062775;28;20354;-71
2023/04/17 06:19:53;;;;;;;54.65;30.25;;;;;;;;;;5058225;28;20044;-72
2023/04/17 06:22:18;;;;;;;55.78;29.33;;;;;;;;;;5057976;28;20641;-71
2023/04/17 06:24:44;;;;;;;51.88;29.98;;;;;;;;;;5059934;28;20040;-70
2023/04/17 06:27:09;;;;;;;50.65;29.73;;;;;;;;;;5041072;28;20051;-72
2023/04/17 06:29:34;;;;;;;53.75;28.90;;;;;;;;;;5044071;28;20051;-71
2023/04/17 06:32:00;;;;;;;50.60;28.38;;;;;;;;;;5058684;28;20459;-71
2023/04/17 06:34:27;;;;;;;53.15;30.70;;;;;;;;;;5042175;28;20076;-70
2023/04/17 06:36:55;;;;;;;50.38;30.20;;;;;;;;;;5062266;28;20047;-70
2023/04/17 06:39:21;;;;;;;53.40;31.45;;;;;;;;;;5058376;28;20058;-72
2023/04/17 06:41:47;;;;;;;57.58;32.03;;;;;;;;;;5039365;28;20048;-71
2023/04/17 06:44:15;;;;;;;51.58;31.10;;;;;;;;;;5058198;28;20557;-71
2023/04/17 06:46:40;;;;;;;52.92;31.42;;;;;;;;;;5059073;28;20115;-71
2023/04/17 06:49:05;;;;;;;52.67;31.45;;;;;;;;;;5062354;28;20051;-71
2023/04/17 06:51:31;;;;;;;55.92;32.10;;;;;;;;;;5059035;28;20043;-71
2023/04/17 06:53:56;;;;;;;56.00;31.05;;;;;;;;;;5028874;28;20047;-72
2023/04/17 06:56:23;;;;;;;53.72;31.30;;;;;;;;;;5061486;28;20039;-70
2023/04/17 06:58:48;;;;;;;50.53;31.52;;;;;;;;;;5057833;28;20036;-71
2023/04/17 07:01:16;;;;;;;51.83;29.75;;;;;;;;;;5057773;28;20157;-72
2023/04/17 07:03:42;;;;;;;50.53;30.17;;;;;;;;;;5057744;28;20438;-71
2023/04/17 07:06:07;;;;;;;48.83;30.80;;;;;;;;;;5061144;28;20039;-72
2023/04/17 07:08:33;;;;;;;52.75;30.33;;;;;;;;;;5048900;28;20278;-71
2023/04/17 07:10:58;;;;;;;52.88;30.45;;;;;;;;;;5051466;28;20048;-71
2023/04/17 07:13:24;;;;;;;49.40;29.77;;;;;;;;;;5061355;28;20134;-70
2023/04/17 07:15:52;;;;;;;50.92;31.33;;;;;;;;;;5061215;28;20106;-71
2023/04/17 07:18:18;;;;;;;55.47;30.85;;;;;;;;;;5036419;28;20754;-72
2023/04/17 07:20:43;;;;;;;51.15;29.73;;;;;;;;;;5060238;28;20317;-71
2023/04/17 07:23:08;;;;;;;51.22;31.98;;;;;;;;;;5060106;28;20112;-71
2023/04/17 07:25:36;;;;;;;50.85;31.52;;;;;;;;;;5063575;28;20475;-72
2023/04/17 07:28:01;;;;;;;50.15;31.80;;;;;;;;;;5062847;28;20051;-72
2023/04/17 07:30:27;;;;;;;54.20;32.30;;;;;;;;;;5060561;28;20056;-71
2023/04/17 07:32:54;;;;;;;51.08;31.92;;;;;;;;;;5057735;28;21983;-71
2023/04/17 07:35:20;;;;;;;48.28;30.42;;;;;;;;;;5060314;28;20105;-71
2023/04/17 07:37:46;;;;;;;51.00;31.33;;;;;;;;;;5060269;28;20048;-71
2023/04/17 07:40:12;;;;;;;52.10;32.38;;;;;;;;;;5037579;28;20042;-70
2023/04/17 07:42:37;;;;;;;54.28;31.30;;;;;;;;;;5041756;28;20637;-71
2023/04/17 07:45:05;;;;;;;53.00;30.98;;;;;;;;;;5059487;28;20036;-72
2023/04/17 07:47:33;;;;;;;50.38;30.75;;;;;;;;;;5059555;28;20113;-71
2023/04/17 07:49:59;;;;;;;51.58;31.00;;;;;;;;;;5060015;28;20686;-72
2023/04/17 07:52:24;;;;;;;52.33;31.38;;;;;;;;;;5061513;28;20064;-70
2023/04/17 07:54:52;;;;;;;52.83;30.88;;;;;;;;;;5056992;28;20521;-71
2023/04/17 07:57:17;;;;;;;49.45;31.08;;;;;;;;;;5044693;28;20040;-70
2023/04/17 07:59:43;;;;;;;51.17;31.25;;;;;;;;;;5059689;28;20059;-69
2023/04/17 08:02:08;;;;;;;50.63;30.58;;;;;;;;;;5043756;28;20514;-72
2023/04/17 08:04:34;;;;;;;52.97;29.70;;;;;;;;;;5042345;28;20473;-72
2023/04/17 08:06:59;;;;;;;52.90;31.58;;;;;;;;;;5058142;28;20036;-71
2023/04/17 08:09:25;;;;;;;49.65;29.42;;;;;;;;;;5062358;28;20059;-72
2023/04/17 08:11:52;;;;;;;53.05;31.05;;;;;;;;;;5057954;28;20059;-72
2023/04/17 08:14:19;;;;;;;47.78;30.75;;;;;;;;;;5059419;28;20043;-70
2023/04/17 08:16:46;;;;;;;50.13;29.58;;;;;;;;;;5061949;28;20036;-70
2023/04/17 08:19:11;;;;;;;49.15;30.33;;;;;;;;;;5057108;28;20557;-72
2023/04/17 08:21:36;;;;;;;46.92;28.20;;;;;;;;;;5036690;28;20100;-71
2023/04/17 08:24:02;;;;;;;43.88;28.35;;;;;;;;;;5058233;28;20040;-71
2023/04/17 08:26:27;;;;;;;42.03;27.67;;;;;;;;;;5035257;28;20060;-71
2023/04/17 08:28:52;;;;;;;42.05;27.13;;;;;;;;;;5057081;28;20040;-70
2023/04/17 08:31:17;;;;;;;39.15;25.38;;;;;;;;;;5058401;28;20421;-72
2023/04/17 08:33:43;;;;;;;40.20;25.33;;;;;;;;;;5056772;28;20033;-70
2023/04/17 08:36:10;;;;;;;43.05;26.55;;;;;;;;;;5060802;28;20034;-70
2023/04/17 08:38:36;;;;;;;41.83;26.48;;;;;;;;;;5045281;28;20449;-71
2023/04/17 08:41:02;;;;;;;41.90;26.83;;;;;;;;;;5047635;28;20036;-71
2023/04/17 08:43:28;;;;;;;39.70;26.67;;;;;;;;;;5058384;28;20044;-72
2023/04/17 08:45:54;;;;;;;42.97;26.58;;;;;;;;;;5061237;28;20036;-71
2023/04/17 08:48:22;;;;;;;45.10;27.15;;;;;;;;;;5040041;28;20121;-72
2023/04/17 08:50:48;;;;;;;43.22;25.92;;;;;;;;;;5062469;28;20135;-72
2023/04/17 08:53:14;;;;;;;42.00;26.65;;;;;;;;;;5045534;28;20225;-71
2023/04/17 08:55:39;;;;;;;38.58;24.95;;;;;;;;;;5060969;28;20259;-71
2023/04/17 08:58:08;;;;;;;41.35;25.30;;;;;;;;;;5037344;28;20046;-71
2023/04/17 09:00:36;;;;;;;41.70;25.70;;;;;;;;;;5041098;28;20036;-71
2023/04/17 09:03:03;;;;;;;35.85;24.67;;;;;;;;;;5043938;28;20077;-71
2023/04/17 09:05:37;;;;;;;37.08;23.60;;;;;;;;;;5061665;28;20652;-71
2023/04/17 09:08:10;;;;;;;35.55;23.67;;;;;;;;;;5045939;28;20302;-70
2023/04/17 09:10:49;;;;;;;36.53;23.58;;;;;;;;;;5050296;28;20044;-71
2023/04/17 09:13:16;;;;;;;33.60;23.63;;;;;;;;;;5060495;28;20124;-71
2023/04/17 09:15:42;;;;;;;39.53;23.60;;;;;;;;;;5061851;28;20075;-71
2023/04/17 09:18:23;;;;;;;36.88;24.05;;;;;;;;;;5060901;28;20044;-72
2023/04/17 09:20:50;;;;;;;36.15;24.45;;;;;;;;;;5060768;28;20085;-71
2023/04/17 09:23:15;;;;;;;34.25;22.30;;;;;;;;;;5055543;28;20032;-71
2023/04/17 09:25:41;;;;;;;37.22;23.48;;;;;;;;;;5057971;28;20512;-71
2023/04/17 09:28:13;;;;;;;32.72;22.15;;;;;;;;;;5056804;28;20027;-70
2023/04/17 09:30:38;;;;;;;;;;;;;;;;;;5037339;28;20342;-70
2023/04/17 09:33:04;;;;;;;31.20;21.63;;;;;;;;;;5041562;28;19911;-70
2023/04/17 09:35:30;;;;;;;35.47;22.38;;;;;;;;;;5060988;28;20425;-71
2023/04/17 09:37:57;;;;;;;33.30;23.27;;;;;;;;;;5057400;28;20039;-71
2023/04/17 09:40:24;;;;;;;31.45;22.55;;;;;;;;;;5060737;28;20168;-71
2023/04/17 09:42:53;;;;;;;31.92;21.90;;;;;;;;;;5060355;28;20043;-70
2023/04/17 09:45:19;;;;;;;34.97;23.10;;;;;;;;;;5059889;28;20157;-70
2023/04/17 09:47:47;;;;;;;30.45;22.23;;;;;;;;;;5057132;28;20500;-71
2023/04/17 09:50:23;;;;;;;33.72;21.92;;;;;;;;;;5060516;28;20504;-73
2023/04/17 09:52:53;;;;;;;35.10;22.30;;;;;;;;;;5060786;28;20036;-72
2023/04/17 09:55:22;;;;;;;35.42;22.85;;;;;;;;;;5043443;28;21838;-71
2023/04/17 09:57:52;;;;;;;32.03;21.88;;;;;;;;;;5057407;28;20063;-70
2023/04/17 10:00:20;;;;;;;30.42;21.73;;;;;;;;;;5035286;28;20501;-72
2023/04/17 10:02:52;;;;;;;29.52;21.17;;;;;;;;;;5060925;28;20726;-72
2023/04/17 10:05:18;;;;;;;29.10;21.15;;;;;;;;;;5039486;28;20532;-71
2023/04/17 10:07:43;;;;;;;28.63;20.77;;;;;;;;;;5061101;28;20040;-71
2023/04/17 10:10:12;;;;;;;28.58;21.50;;;;;;;;;;5038639;28;20119;-71
2023/04/17 10:12:38;;;;;;;28.80;20.40;;;;;;;;;;5037084;28;20859;-70
2023/04/17 10:15:06;;;;;;;26.48;20.35;;;;;;;;;;5055847;28;20480;-69
2023/04/17 10:17:32;;;;;;;29.92;21.02;;;;;;;;;;5061386;28;20118;-70
2023/04/17 10:20:19;;;;;;;28.70;21.40;;;;;;;;;;5058449;28;20101;-69
2023/04/17 10:22:52;;;;;;;27.50;21.02;;;;;;;;;;5058564;28;20416;-71
2023/04/17 10:25:19;;;;;;;26.73;21.00;;;;;;;;;;5039902;28;20044;-71
2023/04/17 10:27:45;;;;;;;31.23;21.25;;;;;;;;;;5043895;28;20040;-71
2023/04/17 10:30:13;;;;;;;26.80;20.67;;;;;;;;;;5060339;28;20567;-71
2023/04/17 10:32:40;;;;;;;28.55;20.38;;;;;;;;;;5043714;28;20105;-73
2023/04/17 10:35:14;;;;;;;28.45;19.90;;;;;;;;;;5058530;28;20047;-70
2023/04/17 10:37:48;;;;;;;27.33;19.65;;;;;;;;;;5056594;28;20128;-71
2023/04/17 10:40:19;;;;;;;25.90;19.30;;;;;;;;;;5057900;28;20074;-70
2023/04/17 10:43:00;;;;;;;28.88;19.45;;;;;;;;;;5058585;28;20633;-71
2023/04/17 10:45:45;;;;;;;22.80;18.27;;;;;;;;;;5038969;28;20450;-70
2023/04/17 10:48:18;;;;;;;25.13;18.70;;;;;;;;;;5055981;28;20044;-70
2023/04/17 10:50:43;;;;;;;23.40;18.17;;;;;;;;;;5056961;28;20096;-71
2023/04/17 10:53:28;;;;;;;23.23;18.13;;;;;;;;;;5041135;28;20063;-70
2023/04/17 10:55:55;;;;;;;23.00;17.73;;;;;;;;;;5044194;28;20064;-71
2023/04/17 10:58:20;;;;;;;24.08;19.05;;;;;;;;;;5057288;28;20742;-69
2023/04/17 11:00:50;;;;;;;22.80;17.73;;;;;;;;;;5058214;28;20085;-69
2023/04/17 11:03:15;;;;;;;24.05;18.85;;;;;;;;;;5036979;28;20036;-70
2023/04/17 11:05:45;;;;;;;24.48;18.92;;;;;;;;;;5060996;28;20051;-70
2023/04/17 11:08:10;;;;;;;27.85;19.75;;;;;;;;;;5058924;28;20034;-69
2023/04/17 11:10:36;;;;;;;23.90;18.45;;;;;;;;;;5041275;28;20036;-70
2023/04/17 11:13:01;;;;;;;22.65;18.58;;;;;;;;;;5054556;28;20040;-69
2023/04/17 11:15:30;;;;;;;25.17;18.42;;;;;;;;;;5058429;28;20119;-71
2023/04/17 11:17:56;;;;;;;25.98;18.73;;;;;;;;;;5060121;28;20048;-70
2023/04/17 11:20:23;;;;;;;23.63;18.73;;;;;;;;;;5059294;28;20039;-70
2023/04/17 11:22:49;;;;;;;25.85;19.35;;;;;;;;;;5055004;28;20032;-70
2023/04/17 11:25:33;;;;;;;24.80;19.25;;;;;;;;;;5056813;28;20496;-71
2023/04/17 11:28:00;;;;;;;22.90;17.33;;;;;;;;;;5038787;28;20044;-73
2023/04/17 11:30:31;;;;;;;23.83;17.98;;;;;;;;;;5056911;28;20541;-74
2023/04/17 11:33:00;;;;;;;25.70;18.73;;;;;;;;;;5057353;28;20063;-74
2023/04/17 11:35:29;;;;;;;27.73;19.08;;;;;;;;;;5036241;28;22874;-72
2023/04/17 11:38:11;;;;;;;24.83;18.25;;;;;;;;;;5060674;28;20450;-72
2023/04/17 11:40:47;;;;;;;23.67;18.08;;;;;;;;;;5036224;28;20131;-76
2023/04/17 11:43:12;;;;;;;23.65;17.77;;;;;;;;;;5036161;28;20664;-70
2023/04/17 11:45:39;;;;;;;24.08;17.45;;;;;;;;;;5059283;28;20459;-72
2023/04/17 11:48:05;;;;;;;25.58;18.15;;;;;;;;;;5017474;28;20043;-70
2023/04/17 11:50:31;;;;;;;25.63;18.65;;;;;;;;;;5060006;28;20048;-73
2023/04/17 11:52:59;;;;;;;22.85;17.80;;;;;;;;;;5058430;28;20540;-72
2023/04/17 11:55:29;;;;;;;25.83;17.85;;;;;;;;;;5044890;28;20036;-71
2023/04/17 11:57:54;;;;;;;22.75;17.08;;;;;;;;;;5059155;28;20061;-72
2023/04/17 12:00:26;;;;;;;21.50;17.48;;;;;;;;;;5059221;28;20047;-73
2023/04/17 12:02:53;;;;;;;22.90;17.92;;;;;;;;;;5054289;28;20101;-73
2023/04/17 12:05:19;;;;;;;22.27;17.52;;;;;;;;;;5034552;28;20032;-73
2023/04/17 12:07:44;;;;;;;24.10;17.23;;;;;;;;;;5056238;28;20140;-73
2023/04/17 12:10:10;;;;;;;22.50;16.83;;;;;;;;;;5033952;28;20239;-70
2023/04/17 12:12:35;;;;;;;24.55;17.35;;;;;;;;;;5042713;28;20117;-71
2023/04/17 12:15:01;;;;;;;22.73;17.80;;;;;;;;;;5058801;28;20449;-70
2023/04/17 12:17:27;;;;;;;25.85;18.85;;;;;;;;;;5062757;28;20044;-70
2023/04/17 12:19:52;;;;;;;27.02;19.50;;;;;;;;;;5042861;28;20061;-71
2023/04/17 12:22:17;;;;;;;25.77;17.98;;;;;;;;;;5061821;28;21968;-72
2023/04/17 12:24:43;;;;;;;25.70;18.58;;;;;;;;;;5064335;28;20059;-73
2023/04/17 12:27:08;;;;;;;24.20;17.52;;;;;;;;;;5062367;28;22438;-73
2023/04/17 12:29:33;;;;;;;28.42;18.25;;;;;;;;;;5057943;28;21052;-68
2023/04/17 12:31:59;;;;;;;24.30;17.52;;;;;;;;;;5043394;28;20497;-70
2023/04/17 12:34:24;;;;;;;27.10;18.63;;;;;;;;;;5060549;28;20036;-71
2023/04/17 12:36:49;;;;;;;26.33;19.48;;;;;;;;;;5034672;28;20036;-73
2023/04/17 12:39:15;;;;;;;27.20;18.30;;;;;;;;;;5055160;28;20560;-77
2023/04/17 12:41:40;;;;;;;28.55;19.48;;;;;;;;;;5033977;28;20747;-74
2023/04/17 12:44:08;;;;;;;26.02;19.88;;;;;;;;;;5057204;28;20115;-72
2023/04/17 12:46:33;;;;;;;27.20;19.95;;;;;;;;;;5054558;28;20086;-71
2023/04/17 12:48:58;;;;;;;29.88;18.85;;;;;;;;;;5040524;28;20550;-71
2023/04/17 12:51:36;;;;;;;27.70;18.58;;;;;;;;;;5044954;28;20162;-71
2023/04/17 12:54:04;;;;;;;26.23;18.83;;;;;;;;;;5064413;28;20051;-73
2023/04/17 12:56:29;;;;;;;29.67;19.55;;;;;;;;;;5043940;28;20836;-72
2023/04/17 12:58:54;;;;;;;28.77;19.20;;;;;;;;;;5060499;28;20032;-76
2023/04/17 13:01:22;;;;;;;30.13;18.67;;;;;;;;;;5062108;28;20067;-69
2023/04/17 13:03:47;;;;;;;24.92;18.00;;;;;;;;;;5043927;28;20036;-70
2023/04/17 13:06:14;;;;;;;27.17;17.75;;;;;;;;;;5050359;28;20040;-70
2023/04/17 13:08:40;;;;;;;26.88;18.50;;;;;;;;;;5061440;28;20045;-70
2023/04/17 13:11:05;;;;;;;27.77;18.67;;;;;;;;;;5060147;28;20035;-71
2023/04/17 13:13:30;;;;;;;28.83;18.95;;;;;;;;;;5045579;28;20040;-70
2023/04/17 13:15:56;;;;;;;26.52;18.35;;;;;;;;;;5064324;28;20036;-69
2023/04/17 13:18:21;;;;;;;23.25;17.73;;;;;;;;;;5022508;28;20043;-70
2023/04/17 13:20:48;;;;;;;27.67;18.60;;;;;;;;;;5060229;28;20040;-71
2023/04/17 13:23:14;;;;;;;24.65;16.90;;;;;;;;;;5058108;28;20054;-70
2023/04/17 13:25:39;;;;;;;23.08;16.65;;;;;;;;;;5042551;28;20864;-69
2023/04/17 13:28:04;;;;;;;26.48;17.50;;;;;;;;;;5061404;28;20040;-69
2023/04/17 13:30:34;;;;;;;20.55;16.77;;;;;;;;;;5057090;28;22563;-68
2023/04/17 13:32:59;;;;;;;24.25;16.85;;;;;;;;;;5058345;28;20501;-67
2023/04/17 13:35:26;;;;;;;24.05;16.65;;;;;;;;;;5060559;28;20394;-69
2023/04/17 13:37:53;;;;;;;22.83;15.68;;;;;;;;;;5038988;28;20039;-68
2023/04/17 13:40:21;;;;;;;19.25;15.35;;;;;;;;;;5060972;28;20047;-67
2023/04/17 13:42:46;;;;;;;20.25;15.45;;;;;;;;;;5060157;28;20032;-68
2023/04/17 13:45:16;;;;;;;19.10;16.00;;;;;;;;;;5040028;28;20059;-69
2023/04/17 13:47:43;;;;;;;21.17;15.52;;;;;;;;;;5038797;28;20038;-72
2023/04/17 13:50:11;;;;;;;21.10;15.77;;;;;;;;;;5054306;28;20040;-72
2023/04/17 13:52:36;;;;;;;20.13;15.75;;;;;;;;;;5059368;28;20611;-69
2023/04/17 13:55:01;;;;;;;21.08;15.48;;;;;;;;;;5037436;28;20089;-68
2023/04/17 13:57:27;;;;;;;20.52;14.10;;;;;;;;;;5055797;28;20409;-69
2023/04/17 13:59:52;;;;;;;23.88;15.52;;;;;;;;;;5056497;28;20101;-71
2023/04/17 14:02:20;;;;;;;24.40;15.93;;;;;;;;;;5055802;28;20040;-67
2023/04/17 14:04:45;;;;;;;22.10;15.05;;;;;;;;;;5057782;28;20058;-68
2023/04/17 14:07:11;;;;;;;19.98;14.77;;;;;;;;;;5058218;28;20782;-65
2023/04/17 14:09:37;;;;;;;22.33;15.45;;;;;;;;;;5058031;28;20044;-67
2023/04/17 14:12:02;;;;;;;21.42;15.63;;;;;;;;;;5057358;28;20039;-69
2023/04/17 14:14:27;;;;;;;17.05;14.30;;;;;;;;;;5052470;28;20633;-70